sensor_id;sensor_type;location;lat;lon;timestamp;P1;durP1;ratioP1;P2;durP2;ratioP2
35743;SDS011;21867;52.012;4.324;2023-04-16T00:00:11;4.33;;;2.70;;
35743;SDS011;21867;52.012;4.324;2023-04-16T00:02:39;7.43;;;2.33;;
35743;SDS011;21867;52.012;4.324;2023-04-16T00:05:07;5.40;;;1.97;;
35743;SDS011;21867;52.012;4.324;2023-04-16T00:07:35;4.60;;;2.73;;
35743;SDS011;21867;52.012;4.324;2023-04-16T00:10:02;6.77;;;2.37;;
35743;SDS011;21867;52.012;4.324;2023-04-16T00:12:31;12.43;;;2.70;;
35743;SDS011;21867;52.012;4.324;2023-04-16T00:14:59;9.20;;;3.17;;
35743;SDS011;21867;52.012;4.324;2023-04-16T00:17:26;9.33;;;2.90;;
35743;SDS011;21867;52.012;4.324;2023-04-16T00:19:59;8.37;;;2.90;;
35743;SDS011;21867;52.012;4.324;2023-04-16T00:22:38;5.87;;;2.20;;
35743;SDS011;21867;52.012;4.324;2023-04-16T00:25:56;6.50;;;2.10;;
35743;SDS011;21867;52.012;4.324;2023-04-16T00:28:26;6.20;;;1.90;;
35743;SDS011;21867;52.012;4.324;2023-04-16T00:30:53;7.20;;;2.47;;
35743;SDS011;21867;52.012;4.324;2023-04-16T00:33:21;6.90;;;2.70;;
35743;SDS011;21867;52.012;4.324;2023-04-16T00:38:35;7.37;;;2.70;;
35743;SDS011;21867;52.012;4.324;2023-04-16T00:41:03;6.20;;;2.77;;
35743;SDS011;21867;52.012;4.324;2023-04-16T00:43:32;7.67;;;2.17;;
35743;SDS011;21867;52.012;4.324;2023-04-16T00:46:00;6.70;;;2.40;;
35743;SDS011;21867;52.012;4.324;2023-04-16T00:48:30;5.37;;;2.13;;
35743;SDS011;21867;52.012;4.324;2023-04-16T00:50:57;9.73;;;2.93;;
35743;SDS011;21867;52.012;4.324;2023-04-16T00:53:25;7.17;;;2.57;;
35743;SDS011;21867;52.012;4.324;2023-04-16T00:55:52;7.10;;;2.30;;
35743;SDS011;21867;52.012;4.324;2023-04-16T00:58:21;9.10;;;3.17;;
35743;SDS011;21867;52.012;4.324;2023-04-16T01:03:45;6.60;;;2.57;;
35743;SDS011;21867;52.012;4.324;2023-04-16T01:06:45;6.37;;;2.43;;
35743;SDS011;21867;52.012;4.324;2023-04-16T01:09:12;5.60;;;2.37;;
35743;SDS011;21867;52.012;4.324;2023-04-16T01:11:40;3.80;;;2.67;;
35743;SDS011;21867;52.012;4.324;2023-04-16T01:14:07;6.43;;;2.50;;
35743;SDS011;21867;52.012;4.324;2023-04-16T01:16:34;5.77;;;2.13;;
35743;SDS011;21867;52.012;4.324;2023-04-16T01:21:46;6.80;;;2.63;;
35743;SDS011;21867;52.012;4.324;2023-04-16T01:24:13;6.23;;;2.73;;
35743;SDS011;21867;52.012;4.324;2023-04-16T01:26:41;6.07;;;2.50;;
35743;SDS011;21867;52.012;4.324;2023-04-16T01:29:14;5.27;;;2.20;;
35743;SDS011;21867;52.012;4.324;2023-04-16T01:37:35;5.47;;;2.27;;
35743;SDS011;21867;52.012;4.324;2023-04-16T01:40:03;8.50;;;2.23;;
35743;SDS011;21867;52.012;4.324;2023-04-16T01:42:30;8.87;;;2.60;;
35743;SDS011;21867;52.012;4.324;2023-04-16T01:44:58;6.23;;;2.00;;
35743;SDS011;21867;52.012;4.324;2023-04-16T01:47:25;8.17;;;2.50;;
35743;SDS011;21867;52.012;4.324;2023-04-16T01:49:52;5.20;;;2.47;;
35743;SDS011;21867;52.012;4.324;2023-04-16T01:52:20;8.50;;;2.57;;
35743;SDS011;21867;52.012;4.324;2023-04-16T01:54:48;8.73;;;2.57;;
35743;SDS011;21867;52.012;4.324;2023-04-16T01:57:16;12.53;;;2.83;;
35743;SDS011;21867;52.012;4.324;2023-04-16T02:05:42;4.80;;;2.17;;
35743;SDS011;21867;52.012;4.324;2023-04-16T02:08:10;6.03;;;3.03;;
35743;SDS011;21867;52.012;4.324;2023-04-16T02:10:39;6.87;;;2.50;;
35743;SDS011;21867;52.012;4.324;2023-04-16T02:13:06;6.40;;;2.67;;
35743;SDS011;21867;52.012;4.324;2023-04-16T02:15:34;8.70;;;3.10;;
35743;SDS011;21867;52.012;4.324;2023-04-16T02:20:52;7.37;;;2.80;;
35743;SDS011;21867;52.012;4.324;2023-04-16T02:23:19;7.00;;;2.73;;
35743;SDS011;21867;52.012;4.324;2023-04-16T02:25:48;9.60;;;3.13;;
35743;SDS011;21867;52.012;4.324;2023-04-16T02:35:37;3.57;;;2.93;;
35743;SDS011;21867;52.012;4.324;2023-04-16T02:38:05;5.47;;;2.57;;
35743;SDS011;21867;52.012;4.324;2023-04-16T02:40:34;11.30;;;3.73;;
35743;SDS011;21867;52.012;4.324;2023-04-16T02:43:03;9.77;;;3.63;;
35743;SDS011;21867;52.012;4.324;2023-04-16T02:45:30;9.70;;;3.73;;
35743;SDS011;21867;52.012;4.324;2023-04-16T02:48:15;5.93;;;2.63;;
35743;SDS011;21867;52.012;4.324;2023-04-16T02:50:43;7.63;;;2.97;;
35743;SDS011;21867;52.012;4.324;2023-04-16T02:53:10;10.20;;;3.47;;
35743;SDS011;21867;52.012;4.324;2023-04-16T02:55:38;6.07;;;3.40;;
35743;SDS011;21867;52.012;4.324;2023-04-16T02:58:19;15.23;;;3.07;;
35743;SDS011;21867;52.012;4.324;2023-04-16T03:03:50;7.77;;;3.37;;
35743;SDS011;21867;52.012;4.324;2023-04-16T03:06:19;11.37;;;3.63;;
35743;SDS011;21867;52.012;4.324;2023-04-16T03:08:46;6.40;;;2.97;;
35743;SDS011;21867;52.012;4.324;2023-04-16T03:11:13;6.80;;;4.03;;
35743;SDS011;21867;52.012;4.324;2023-04-16T03:13:42;9.10;;;2.97;;
35743;SDS011;21867;52.012;4.324;2023-04-16T03:16:09;6.43;;;3.20;;
35743;SDS011;21867;52.012;4.324;2023-04-16T03:18:37;10.37;;;4.23;;
35743;SDS011;21867;52.012;4.324;2023-04-16T03:21:04;7.43;;;3.57;;
35743;SDS011;21867;52.012;4.324;2023-04-16T03:23:32;8.60;;;3.20;;
35743;SDS011;21867;52.012;4.324;2023-04-16T03:25:59;8.03;;;2.97;;
35743;SDS011;21867;52.012;4.324;2023-04-16T03:28:30;10.60;;;3.80;;
35743;SDS011;21867;52.012;4.324;2023-04-16T03:31:03;6.87;;;3.43;;
35743;SDS011;21867;52.012;4.324;2023-04-16T03:33:37;10.90;;;3.40;;
35743;SDS011;21867;52.012;4.324;2023-04-16T03:36:05;5.33;;;2.90;;
35743;SDS011;21867;52.012;4.324;2023-04-16T03:38:32;7.33;;;3.27;;
35743;SDS011;21867;52.012;4.324;2023-04-16T03:40:59;8.40;;;3.63;;
35743;SDS011;21867;52.012;4.324;2023-04-16T03:43:28;7.70;;;3.17;;
35743;SDS011;21867;52.012;4.324;2023-04-16T03:45:55;6.43;;;3.03;;
35743;SDS011;21867;52.012;4.324;2023-04-16T03:48:24;8.07;;;3.50;;
35743;SDS011;21867;52.012;4.324;2023-04-16T03:50:52;7.57;;;3.43;;
35743;SDS011;21867;52.012;4.324;2023-04-16T03:53:19;9.23;;;3.13;;
35743;SDS011;21867;52.012;4.324;2023-04-16T03:55:48;5.17;;;2.93;;
35743;SDS011;21867;52.012;4.324;2023-04-16T03:58:19;7.37;;;2.90;;
35743;SDS011;21867;52.012;4.324;2023-04-16T04:00:51;8.13;;;2.80;;
35743;SDS011;21867;52.012;4.324;2023-04-16T04:03:25;7.53;;;2.97;;
35743;SDS011;21867;52.012;4.324;2023-04-16T04:05:54;7.33;;;3.50;;
35743;SDS011;21867;52.012;4.324;2023-04-16T04:08:28;7.83;;;2.90;;
35743;SDS011;21867;52.012;4.324;2023-04-16T04:10:55;14.00;;;3.93;;
35743;SDS011;21867;52.012;4.324;2023-04-16T04:13:23;8.60;;;3.30;;
35743;SDS011;21867;52.012;4.324;2023-04-16T04:15:51;7.43;;;3.27;;
35743;SDS011;21867;52.012;4.324;2023-04-16T04:18:19;10.20;;;2.90;;
35743;SDS011;21867;52.012;4.324;2023-04-16T04:20:48;21.00;;;4.33;;
35743;SDS011;21867;52.012;4.324;2023-04-16T04:23:18;7.43;;;3.77;;
35743;SDS011;21867;52.012;4.324;2023-04-16T04:25:46;11.70;;;3.80;;
35743;SDS011;21867;52.012;4.324;2023-04-16T04:37:30;15.97;;;3.77;;
35743;SDS011;21867;52.012;4.324;2023-04-16T04:40:01;14.37;;;3.70;;
35743;SDS011;21867;52.012;4.324;2023-04-16T04:48:07;14.67;;;3.40;;
35743;SDS011;21867;52.012;4.324;2023-04-16T04:50:35;11.83;;;4.33;;
35743;SDS011;21867;52.012;4.324;2023-04-16T04:53:04;12.97;;;3.33;;
35743;SDS011;21867;52.012;4.324;2023-04-16T04:55:31;14.17;;;3.47;;
35743;SDS011;21867;52.012;4.324;2023-04-16T04:58:17;9.57;;;3.43;;
35743;SDS011;21867;52.012;4.324;2023-04-16T05:00:47;13.53;;;3.87;;
35743;SDS011;21867;52.012;4.324;2023-04-16T05:04:12;13.37;;;3.73;;
35743;SDS011;21867;52.012;4.324;2023-04-16T05:06:40;9.03;;;3.27;;
35743;SDS011;21867;52.012;4.324;2023-04-16T05:09:09;15.87;;;4.00;;
35743;SDS011;21867;52.012;4.324;2023-04-16T05:11:37;8.37;;;3.03;;
35743;SDS011;21867;52.012;4.324;2023-04-16T05:14:04;7.07;;;3.10;;
35743;SDS011;21867;52.012;4.324;2023-04-16T05:19:23;9.37;;;4.10;;
35743;SDS011;21867;52.012;4.324;2023-04-16T05:21:51;6.93;;;2.90;;
35743;SDS011;21867;52.012;4.324;2023-04-16T05:24:20;6.20;;;2.73;;
35743;SDS011;21867;52.012;4.324;2023-04-16T05:26:50;10.93;;;3.00;;
35743;SDS011;21867;52.012;4.324;2023-04-16T05:29:23;9.40;;;2.93;;
35743;SDS011;21867;52.012;4.324;2023-04-16T05:31:52;10.27;;;2.67;;
35743;SDS011;21867;52.012;4.324;2023-04-16T05:34:19;5.17;;;2.33;;
35743;SDS011;21867;52.012;4.324;2023-04-16T05:36:47;8.73;;;3.03;;
35743;SDS011;21867;52.012;4.324;2023-04-16T05:39:15;7.93;;;3.30;;
35743;SDS011;21867;52.012;4.324;2023-04-16T05:41:43;5.63;;;3.13;;
35743;SDS011;21867;52.012;4.324;2023-04-16T05:44:11;11.27;;;3.23;;
35743;SDS011;21867;52.012;4.324;2023-04-16T05:49:27;9.87;;;3.87;;
35743;SDS011;21867;52.012;4.324;2023-04-16T05:51:55;10.23;;;2.57;;
35743;SDS011;21867;52.012;4.324;2023-04-16T05:57:06;7.50;;;3.33;;
35743;SDS011;21867;52.012;4.324;2023-04-16T05:59:33;8.20;;;2.47;;
35743;SDS011;21867;52.012;4.324;2023-04-16T06:07:45;14.03;;;3.10;;
35743;SDS011;21867;52.012;4.324;2023-04-16T06:10:13;12.57;;;3.40;;
35743;SDS011;21867;52.012;4.324;2023-04-16T06:12:42;8.67;;;3.40;;
35743;SDS011;21867;52.012;4.324;2023-04-16T06:15:10;9.73;;;2.70;;
35743;SDS011;21867;52.012;4.324;2023-04-16T06:17:37;11.13;;;3.70;;
35743;SDS011;21867;52.012;4.324;2023-04-16T06:20:05;11.23;;;3.67;;
35743;SDS011;21867;52.012;4.324;2023-04-16T06:22:32;11.10;;;4.03;;
35743;SDS011;21867;52.012;4.324;2023-04-16T06:24:59;13.80;;;3.80;;
35743;SDS011;21867;52.012;4.324;2023-04-16T06:27:27;6.23;;;3.10;;
35743;SDS011;21867;52.012;4.324;2023-04-16T06:29:56;8.77;;;2.90;;
35743;SDS011;21867;52.012;4.324;2023-04-16T06:32:30;7.60;;;3.30;;
35743;SDS011;21867;52.012;4.324;2023-04-16T06:35:16;6.70;;;2.40;;
35743;SDS011;21867;52.012;4.324;2023-04-16T06:37:57;9.60;;;3.07;;
35743;SDS011;21867;52.012;4.324;2023-04-16T06:40:24;6.10;;;3.20;;
35743;SDS011;21867;52.012;4.324;2023-04-16T06:42:53;8.60;;;3.03;;
35743;SDS011;21867;52.012;4.324;2023-04-16T06:45:24;3.80;;;2.23;;
35743;SDS011;21867;52.012;4.324;2023-04-16T06:53:29;7.47;;;2.70;;
35743;SDS011;21867;52.012;4.324;2023-04-16T06:55:57;2.83;;;2.50;;
35743;SDS011;21867;52.012;4.324;2023-04-16T06:58:25;4.97;;;2.70;;
35743;SDS011;21867;52.012;4.324;2023-04-16T07:00:59;2.60;;;2.03;;
35743;SDS011;21867;52.012;4.324;2023-04-16T07:03:45;6.43;;;3.10;;
35743;SDS011;21867;52.012;4.324;2023-04-16T07:06:31;6.60;;;2.97;;
35743;SDS011;21867;52.012;4.324;2023-04-16T07:08:59;6.30;;;2.70;;
35743;SDS011;21867;52.012;4.324;2023-04-16T07:11:26;6.60;;;3.27;;
35743;SDS011;21867;52.012;4.324;2023-04-16T07:16:44;5.53;;;2.83;;
35743;SDS011;21867;52.012;4.324;2023-04-16T07:19:11;6.23;;;3.60;;
35743;SDS011;21867;52.012;4.324;2023-04-16T07:21:38;7.23;;;3.33;;
35743;SDS011;21867;52.012;4.324;2023-04-16T07:24:06;10.03;;;3.23;;
35743;SDS011;21867;52.012;4.324;2023-04-16T07:26:33;6.67;;;2.87;;
35743;SDS011;21867;52.012;4.324;2023-04-16T07:29:00;5.63;;;3.10;;
35743;SDS011;21867;52.012;4.324;2023-04-16T07:31:27;6.33;;;3.77;;
35743;SDS011;21867;52.012;4.324;2023-04-16T07:33:56;7.07;;;4.47;;
35743;SDS011;21867;52.012;4.324;2023-04-16T07:36:25;6.63;;;3.03;;
35743;SDS011;21867;52.012;4.324;2023-04-16T07:38:52;10.67;;;3.13;;
35743;SDS011;21867;52.012;4.324;2023-04-16T07:41:19;6.63;;;3.33;;
35743;SDS011;21867;52.012;4.324;2023-04-16T07:43:47;6.33;;;3.17;;
35743;SDS011;21867;52.012;4.324;2023-04-16T07:46:14;6.10;;;3.40;;
35743;SDS011;21867;52.012;4.324;2023-04-16T07:48:41;9.90;;;3.80;;
35743;SDS011;21867;52.012;4.324;2023-04-16T07:51:10;9.10;;;3.40;;
35743;SDS011;21867;52.012;4.324;2023-04-16T07:53:37;7.03;;;3.47;;
35743;SDS011;21867;52.012;4.324;2023-04-16T07:56:05;6.13;;;3.13;;
35743;SDS011;21867;52.012;4.324;2023-04-16T07:58:33;15.93;;;3.93;;
35743;SDS011;21867;52.012;4.324;2023-04-16T08:01:01;5.30;;;3.33;;
35743;SDS011;21867;52.012;4.324;2023-04-16T08:03:28;4.07;;;3.27;;
35743;SDS011;21867;52.012;4.324;2023-04-16T08:05:58;10.03;;;3.70;;
35743;SDS011;21867;52.012;4.324;2023-04-16T08:08:27;6.10;;;3.33;;
35743;SDS011;21867;52.012;4.324;2023-04-16T08:10:57;6.57;;;3.13;;
35743;SDS011;21867;52.012;4.324;2023-04-16T08:13:24;10.13;;;3.73;;
35743;SDS011;21867;52.012;4.324;2023-04-16T08:15:51;9.23;;;3.10;;
35743;SDS011;21867;52.012;4.324;2023-04-16T08:18:21;8.70;;;3.70;;
35743;SDS011;21867;52.012;4.324;2023-04-16T08:20:48;6.57;;;3.70;;
35743;SDS011;21867;52.012;4.324;2023-04-16T08:23:16;9.07;;;3.47;;
35743;SDS011;21867;52.012;4.324;2023-04-16T08:28:34;6.93;;;3.77;;
35743;SDS011;21867;52.012;4.324;2023-04-16T08:31:02;5.97;;;3.17;;
35743;SDS011;21867;52.012;4.324;2023-04-16T08:33:29;7.50;;;3.60;;
35743;SDS011;21867;52.012;4.324;2023-04-16T08:38:32;10.60;;;3.87;;
35743;SDS011;21867;52.012;4.324;2023-04-16T08:41:01;5.97;;;3.37;;
35743;SDS011;21867;52.012;4.324;2023-04-16T08:43:29;7.47;;;3.10;;
35743;SDS011;21867;52.012;4.324;2023-04-16T08:46:00;5.67;;;2.87;;
35743;SDS011;21867;52.012;4.324;2023-04-16T08:48:28;5.97;;;2.90;;
35743;SDS011;21867;52.012;4.324;2023-04-16T08:50:59;6.03;;;3.10;;
35743;SDS011;21867;52.012;4.324;2023-04-16T08:53:39;9.47;;;3.60;;
35743;SDS011;21867;52.012;4.324;2023-04-16T08:56:18;6.63;;;3.13;;
35743;SDS011;21867;52.012;4.324;2023-04-16T08:58:46;6.07;;;3.20;;
35743;SDS011;21867;52.012;4.324;2023-04-16T09:01:17;9.93;;;3.60;;
35743;SDS011;21867;52.012;4.324;2023-04-16T09:03:45;5.50;;;2.90;;
35743;SDS011;21867;52.012;4.324;2023-04-16T09:06:19;5.77;;;3.47;;
35743;SDS011;21867;52.012;4.324;2023-04-16T09:08:46;5.10;;;2.80;;
35743;SDS011;21867;52.012;4.324;2023-04-16T09:11:18;8.87;;;3.43;;
35743;SDS011;21867;52.012;4.324;2023-04-16T09:13:46;5.43;;;3.40;;
35743;SDS011;21867;52.012;4.324;2023-04-16T09:21:55;8.53;;;3.20;;
35743;SDS011;21867;52.012;4.324;2023-04-16T09:24:40;4.40;;;2.90;;
35743;SDS011;21867;52.012;4.324;2023-04-16T09:29:57;11.97;;;3.57;;
35743;SDS011;21867;52.012;4.324;2023-04-16T09:32:25;6.23;;;3.40;;
35743;SDS011;21867;52.012;4.324;2023-04-16T09:37:37;6.07;;;3.83;;
35743;SDS011;21867;52.012;4.324;2023-04-16T09:40:05;8.03;;;3.43;;
35743;SDS011;21867;52.012;4.324;2023-04-16T09:42:32;8.00;;;3.17;;
35743;SDS011;21867;52.012;4.324;2023-04-16T09:45:01;6.23;;;3.40;;
35743;SDS011;21867;52.012;4.324;2023-04-16T09:47:38;11.37;;;3.20;;
35743;SDS011;21867;52.012;4.324;2023-04-16T09:50:06;8.40;;;3.23;;
35743;SDS011;21867;52.012;4.324;2023-04-16T09:52:41;4.77;;;3.03;;
35743;SDS011;21867;52.012;4.324;2023-04-16T09:55:10;6.63;;;3.00;;
35743;SDS011;21867;52.012;4.324;2023-04-16T09:57:38;8.20;;;3.20;;
35743;SDS011;21867;52.012;4.324;2023-04-16T10:00:05;7.53;;;3.57;;
35743;SDS011;21867;52.012;4.324;2023-04-16T10:02:33;12.33;;;3.67;;
35743;SDS011;21867;52.012;4.324;2023-04-16T10:05:01;6.63;;;2.97;;
35743;SDS011;21867;52.012;4.324;2023-04-16T10:07:32;9.97;;;3.43;;
35743;SDS011;21867;52.012;4.324;2023-04-16T10:10:00;5.87;;;2.83;;
35743;SDS011;21867;52.012;4.324;2023-04-16T10:12:28;4.17;;;3.30;;
35743;SDS011;21867;52.012;4.324;2023-04-16T10:14:56;4.73;;;3.53;;
35743;SDS011;21867;52.012;4.324;2023-04-16T10:17:23;10.93;;;3.20;;
35743;SDS011;21867;52.012;4.324;2023-04-16T10:19:51;8.07;;;3.50;;
35743;SDS011;21867;52.012;4.324;2023-04-16T10:22:19;4.47;;;3.00;;
35743;SDS011;21867;52.012;4.324;2023-04-16T10:24:46;9.77;;;3.70;;
35743;SDS011;21867;52.012;4.324;2023-04-16T10:27:16;6.07;;;3.63;;
35743;SDS011;21867;52.012;4.324;2023-04-16T10:29:44;6.70;;;3.40;;
35743;SDS011;21867;52.012;4.324;2023-04-16T10:32:12;5.10;;;3.50;;
35743;SDS011;21867;52.012;4.324;2023-04-16T10:34:40;6.20;;;3.40;;
35743;SDS011;21867;52.012;4.324;2023-04-16T10:37:09;10.33;;;3.93;;
35743;SDS011;21867;52.012;4.324;2023-04-16T10:39:36;4.90;;;3.60;;
35743;SDS011;21867;52.012;4.324;2023-04-16T10:42:07;6.60;;;3.10;;
35743;SDS011;21867;52.012;4.324;2023-04-16T10:44:36;7.43;;;3.50;;
35743;SDS011;21867;52.012;4.324;2023-04-16T10:47:08;6.40;;;4.20;;
35743;SDS011;21867;52.012;4.324;2023-04-16T10:49:36;6.10;;;3.33;;
35743;SDS011;21867;52.012;4.324;2023-04-16T10:52:06;5.37;;;3.27;;
35743;SDS011;21867;52.012;4.324;2023-04-16T10:54:34;6.60;;;3.63;;
35743;SDS011;21867;52.012;4.324;2023-04-16T10:57:02;6.27;;;3.57;;
35743;SDS011;21867;52.012;4.324;2023-04-16T10:59:30;9.00;;;3.73;;
35743;SDS011;21867;52.012;4.324;2023-04-16T11:02:00;11.77;;;4.27;;
35743;SDS011;21867;52.012;4.324;2023-04-16T11:04:28;10.27;;;3.53;;
35743;SDS011;21867;52.012;4.324;2023-04-16T11:07:00;9.40;;;4.27;;
35743;SDS011;21867;52.012;4.324;2023-04-16T11:12:13;16.10;;;3.97;;
35743;SDS011;21867;52.012;4.324;2023-04-16T11:14:41;4.13;;;3.73;;
35743;SDS011;21867;52.012;4.324;2023-04-16T11:17:10;7.27;;;3.53;;
35743;SDS011;21867;52.012;4.324;2023-04-16T11:19:38;10.40;;;4.37;;
35743;SDS011;21867;52.012;4.324;2023-04-16T11:22:05;5.20;;;3.33;;
35743;SDS011;21867;52.012;4.324;2023-04-16T11:24:34;5.10;;;3.50;;
35743;SDS011;21867;52.012;4.324;2023-04-16T11:27:01;5.93;;;4.53;;
35743;SDS011;21867;52.012;4.324;2023-04-16T11:29:29;6.10;;;3.67;;
35743;SDS011;21867;52.012;4.324;2023-04-16T11:31:56;6.70;;;4.03;;
35743;SDS011;21867;52.012;4.324;2023-04-16T11:34:25;4.93;;;3.73;;
35743;SDS011;21867;52.012;4.324;2023-04-16T11:36:53;8.53;;;4.13;;
35743;SDS011;21867;52.012;4.324;2023-04-16T11:39:21;8.20;;;4.40;;
35743;SDS011;21867;52.012;4.324;2023-04-16T11:41:49;5.77;;;4.30;;
35743;SDS011;21867;52.012;4.324;2023-04-16T11:44:19;7.70;;;4.40;;
35743;SDS011;21867;52.012;4.324;2023-04-16T11:46:47;5.93;;;3.57;;
35743;SDS011;21867;52.012;4.324;2023-04-16T11:49:15;5.30;;;3.73;;
35743;SDS011;21867;52.012;4.324;2023-04-16T11:51:45;6.77;;;3.93;;
35743;SDS011;21867;52.012;4.324;2023-04-16T11:54:18;7.70;;;3.70;;
35743;SDS011;21867;52.012;4.324;2023-04-16T11:56:47;10.67;;;4.17;;
35743;SDS011;21867;52.012;4.324;2023-04-16T11:59:16;8.27;;;3.77;;
35743;SDS011;21867;52.012;4.324;2023-04-16T12:01:45;9.30;;;4.40;;
35743;SDS011;21867;52.012;4.324;2023-04-16T12:04:13;9.30;;;3.50;;
35743;SDS011;21867;52.012;4.324;2023-04-16T12:09:24;7.10;;;4.20;;
35743;SDS011;21867;52.012;4.324;2023-04-16T12:11:52;5.43;;;3.27;;
35743;SDS011;21867;52.012;4.324;2023-04-16T12:14:20;7.30;;;3.87;;
35743;SDS011;21867;52.012;4.324;2023-04-16T12:16:47;6.53;;;4.53;;
35743;SDS011;21867;52.012;4.324;2023-04-16T12:19:14;5.70;;;3.33;;
35743;SDS011;21867;52.012;4.324;2023-04-16T12:21:42;7.53;;;3.90;;
35743;SDS011;21867;52.012;4.324;2023-04-16T12:24:10;7.50;;;4.10;;
35743;SDS011;21867;52.012;4.324;2023-04-16T12:26:40;8.83;;;3.63;;
35743;SDS011;21867;52.012;4.324;2023-04-16T12:29:14;10.80;;;4.03;;
35743;SDS011;21867;52.012;4.324;2023-04-16T12:31:43;5.40;;;3.97;;
35743;SDS011;21867;52.012;4.324;2023-04-16T12:34:10;5.57;;;4.03;;
35743;SDS011;21867;52.012;4.324;2023-04-16T12:36:38;8.40;;;4.93;;
35743;SDS011;21867;52.012;4.324;2023-04-16T12:39:05;6.83;;;4.20;;
35743;SDS011;21867;52.012;4.324;2023-04-16T12:41:34;9.97;;;4.67;;
35743;SDS011;21867;52.012;4.324;2023-04-16T12:44:04;4.87;;;4.47;;
35743;SDS011;21867;52.012;4.324;2023-04-16T12:46:31;8.90;;;5.63;;
35743;SDS011;21867;52.012;4.324;2023-04-16T12:49:01;8.60;;;4.23;;
35743;SDS011;21867;52.012;4.324;2023-04-16T12:51:29;12.10;;;4.63;;
35743;SDS011;21867;52.012;4.324;2023-04-16T12:53:57;6.70;;;5.13;;
35743;SDS011;21867;52.012;4.324;2023-04-16T12:56:24;12.77;;;6.10;;
35743;SDS011;21867;52.012;4.324;2023-04-16T12:58:52;13.23;;;5.87;;
35743;SDS011;21867;52.012;4.324;2023-04-16T13:01:21;12.13;;;6.20;;
35743;SDS011;21867;52.012;4.324;2023-04-16T13:03:48;7.87;;;6.13;;
35743;SDS011;21867;52.012;4.324;2023-04-16T13:06:16;12.00;;;5.77;;
35743;SDS011;21867;52.012;4.324;2023-04-16T13:08:43;16.60;;;5.90;;
35743;SDS011;21867;52.012;4.324;2023-04-16T13:11:11;13.80;;;6.30;;
35743;SDS011;21867;52.012;4.324;2023-04-16T13:13:38;13.93;;;5.70;;
35743;SDS011;21867;52.012;4.324;2023-04-16T13:16:06;12.20;;;5.93;;
35743;SDS011;21867;52.012;4.324;2023-04-16T13:18:35;19.90;;;6.23;;
35743;SDS011;21867;52.012;4.324;2023-04-16T13:21:02;14.00;;;5.93;;
35743;SDS011;21867;52.012;4.324;2023-04-16T13:23:30;15.13;;;5.73;;
35743;SDS011;21867;52.012;4.324;2023-04-16T13:25:57;8.23;;;5.23;;
35743;SDS011;21867;52.012;4.324;2023-04-16T13:28:25;15.47;;;5.50;;
35743;SDS011;21867;52.012;4.324;2023-04-16T13:30:52;13.07;;;5.60;;
35743;SDS011;21867;52.012;4.324;2023-04-16T13:33:19;11.60;;;5.37;;
35743;SDS011;21867;52.012;4.324;2023-04-16T13:35:48;11.67;;;5.93;;
35743;SDS011;21867;52.012;4.324;2023-04-16T13:38:16;8.80;;;5.70;;
35743;SDS011;21867;52.012;4.324;2023-04-16T13:40:43;11.07;;;5.57;;
35743;SDS011;21867;52.012;4.324;2023-04-16T13:43:11;12.13;;;5.50;;
35743;SDS011;21867;52.012;4.324;2023-04-16T13:45:38;10.77;;;5.77;;
35743;SDS011;21867;52.012;4.324;2023-04-16T13:48:05;10.80;;;5.03;;
35743;SDS011;21867;52.012;4.324;2023-04-16T13:50:33;10.47;;;5.03;;
35743;SDS011;21867;52.012;4.324;2023-04-16T13:53:02;10.33;;;5.07;;
35743;SDS011;21867;52.012;4.324;2023-04-16T13:55:29;11.50;;;5.47;;
35743;SDS011;21867;52.012;4.324;2023-04-16T13:57:56;6.60;;;4.47;;
35743;SDS011;21867;52.012;4.324;2023-04-16T14:00:24;9.70;;;5.60;;
35743;SDS011;21867;52.012;4.324;2023-04-16T14:02:52;8.77;;;6.00;;
35743;SDS011;21867;52.012;4.324;2023-04-16T14:05:19;9.10;;;5.30;;
35743;SDS011;21867;52.012;4.324;2023-04-16T14:07:47;11.60;;;5.43;;
35743;SDS011;21867;52.012;4.324;2023-04-16T14:10:16;10.03;;;5.53;;
35743;SDS011;21867;52.012;4.324;2023-04-16T14:12:43;9.30;;;5.60;;
35743;SDS011;21867;52.012;4.324;2023-04-16T14:15:11;12.27;;;6.40;;
35743;SDS011;21867;52.012;4.324;2023-04-16T14:17:38;11.50;;;6.70;;
35743;SDS011;21867;52.012;4.324;2023-04-16T14:20:06;9.77;;;5.80;;
35743;SDS011;21867;52.012;4.324;2023-04-16T14:22:33;10.87;;;5.97;;
35743;SDS011;21867;52.012;4.324;2023-04-16T14:25:00;8.37;;;6.50;;
35743;SDS011;21867;52.012;4.324;2023-04-16T14:27:29;8.27;;;6.03;;
35743;SDS011;21867;52.012;4.324;2023-04-16T14:29:57;10.60;;;6.80;;
35743;SDS011;21867;52.012;4.324;2023-04-16T14:32:24;8.23;;;5.80;;
35743;SDS011;21867;52.012;4.324;2023-04-16T14:34:51;13.87;;;6.63;;
35743;SDS011;21867;52.012;4.324;2023-04-16T14:37:19;14.27;;;7.27;;
35743;SDS011;21867;52.012;4.324;2023-04-16T14:39:46;8.40;;;6.07;;
35743;SDS011;21867;52.012;4.324;2023-04-16T14:42:13;8.00;;;6.60;;
35743;SDS011;21867;52.012;4.324;2023-04-16T14:44:42;9.03;;;5.70;;
35743;SDS011;21867;52.012;4.324;2023-04-16T14:47:09;13.87;;;6.10;;
35743;SDS011;21867;52.012;4.324;2023-04-16T14:49:36;13.77;;;6.73;;
35743;SDS011;21867;52.012;4.324;2023-04-16T14:52:04;9.53;;;6.57;;
35743;SDS011;21867;52.012;4.324;2023-04-16T14:54:31;9.10;;;7.13;;
35743;SDS011;21867;52.012;4.324;2023-04-16T14:56:59;12.83;;;6.23;;
35743;SDS011;21867;52.012;4.324;2023-04-16T14:59:26;14.20;;;6.40;;
35743;SDS011;21867;52.012;4.324;2023-04-16T15:01:55;10.13;;;6.57;;
35743;SDS011;21867;52.012;4.324;2023-04-16T15:04:23;8.67;;;5.90;;
35743;SDS011;21867;52.012;4.324;2023-04-16T15:06:50;8.37;;;6.23;;
35743;SDS011;21867;52.012;4.324;2023-04-16T15:09:18;10.13;;;6.57;;
35743;SDS011;21867;52.012;4.324;2023-04-16T15:11:45;9.17;;;5.83;;
35743;SDS011;21867;52.012;4.324;2023-04-16T15:14:12;12.83;;;5.87;;
35743;SDS011;21867;52.012;4.324;2023-04-16T15:16:39;11.37;;;5.40;;
35743;SDS011;21867;52.012;4.324;2023-04-16T15:19:08;10.63;;;5.60;;
35743;SDS011;21867;52.012;4.324;2023-04-16T15:21:36;10.77;;;5.43;;
35743;SDS011;21867;52.012;4.324;2023-04-16T15:24:03;11.23;;;5.80;;
35743;SDS011;21867;52.012;4.324;2023-04-16T15:26:35;8.70;;;5.80;;
35743;SDS011;21867;52.012;4.324;2023-04-16T15:29:03;8.47;;;6.17;;
35743;SDS011;21867;52.012;4.324;2023-04-16T15:31:30;8.40;;;5.37;;
35743;SDS011;21867;52.012;4.324;2023-04-16T15:33:57;11.47;;;5.93;;
35743;SDS011;21867;52.012;4.324;2023-04-16T15:42:18;12.47;;;5.77;;
35743;SDS011;21867;52.012;4.324;2023-04-16T15:44:46;11.97;;;6.33;;
35743;SDS011;21867;52.012;4.324;2023-04-16T15:47:14;11.93;;;6.33;;
35743;SDS011;21867;52.012;4.324;2023-04-16T15:49:41;6.53;;;5.80;;
35743;SDS011;21867;52.012;4.324;2023-04-16T15:52:09;8.20;;;5.57;;
35743;SDS011;21867;52.012;4.324;2023-04-16T15:54:36;18.77;;;7.37;;
35743;SDS011;21867;52.012;4.324;2023-04-16T15:57:19;6.27;;;5.20;;
35743;SDS011;21867;52.012;4.324;2023-04-16T15:59:46;12.33;;;5.90;;
35743;SDS011;21867;52.012;4.324;2023-04-16T16:02:33;10.30;;;6.23;;
35743;SDS011;21867;52.012;4.324;2023-04-16T16:05:04;8.10;;;6.00;;
35743;SDS011;21867;52.012;4.324;2023-04-16T16:07:33;11.27;;;5.63;;
35743;SDS011;21867;52.012;4.324;2023-04-16T16:10:05;10.93;;;6.33;;
35743;SDS011;21867;52.012;4.324;2023-04-16T16:12:35;9.33;;;5.60;;
35743;SDS011;21867;52.012;4.324;2023-04-16T16:15:03;10.27;;;6.17;;
35743;SDS011;21867;52.012;4.324;2023-04-16T16:17:31;13.23;;;6.77;;
35743;SDS011;21867;52.012;4.324;2023-04-16T16:19:58;12.60;;;7.63;;
35743;SDS011;21867;52.012;4.324;2023-04-16T16:22:25;10.87;;;6.97;;
35743;SDS011;21867;52.012;4.324;2023-04-16T16:27:36;10.67;;;6.97;;
35743;SDS011;21867;52.012;4.324;2023-04-16T16:30:04;12.00;;;7.60;;
35743;SDS011;21867;52.012;4.324;2023-04-16T16:32:34;11.40;;;7.20;;
35743;SDS011;21867;52.012;4.324;2023-04-16T16:35:05;18.70;;;7.03;;